createdAt,value
2018-11-07T00:01:20.046Z,8.00
2018-11-07T00:03:47.445Z,8.00
2018-11-07T00:06:14.873Z,8.00
2018-11-07T00:08:42.288Z,8.00
2018-11-07T00:11:09.819Z,8.00
2018-11-07T00:13:37.288Z,8.10
2018-11-07T00:16:05.447Z,8.00
2018-11-07T00:18:32.966Z,8.00
2018-11-07T00:21:00.565Z,8.00
2018-11-07T00:23:27.942Z,8.10
2018-11-07T00:25:55.372Z,8.10
2018-11-07T00:28:22.977Z,8.10
2018-11-07T00:30:50.422Z,8.20
2018-11-07T00:33:18.209Z,8.20
2018-11-07T00:35:45.785Z,8.00
2018-11-07T00:38:13.866Z,7.80
2018-11-07T00:40:41.352Z,7.80
2018-11-07T00:43:08.826Z,7.70
2018-11-07T00:45:36.253Z,7.60
2018-11-07T00:48:03.835Z,7.60
2018-11-07T00:50:31.189Z,7.60
2018-11-07T00:52:58.623Z,7.60
2018-11-07T00:55:26.019Z,7.60
2018-11-07T00:57:53.513Z,7.60
2018-11-07T01:00:21.063Z,7.60
2018-11-07T01:02:49.168Z,7.50
2018-11-07T01:05:16.707Z,7.40
2018-11-07T01:07:45.133Z,7.50
2018-11-07T01:10:12.787Z,7.50
2018-11-07T01:12:41.254Z,7.40
2018-11-07T01:15:09.574Z,7.40
2018-11-07T01:17:37.161Z,7.50
2018-11-07T01:20:05.827Z,7.50
2018-11-07T01:22:33.304Z,7.60
2018-11-07T01:25:00.782Z,7.60
2018-11-07T01:27:28.302Z,7.60
2018-11-07T01:29:55.904Z,7.50
2018-11-07T01:32:23.419Z,7.60
2018-11-07T01:34:51.181Z,7.60
2018-11-07T01:37:18.683Z,7.70
2018-11-07T01:39:46.205Z,7.70
2018-11-07T01:42:13.903Z,7.70
2018-11-07T01:44:41.398Z,7.40
2018-11-07T01:47:09.094Z,7.50
2018-11-07T01:49:36.768Z,7.50
2018-11-07T01:52:04.320Z,7.50
2018-11-07T01:54:31.770Z,7.50
2018-11-07T01:56:59.260Z,7.40
2018-11-07T01:59:26.937Z,7.30
2018-11-07T02:01:54.532Z,7.40
2018-11-07T02:04:21.992Z,7.40
2018-11-07T02:06:49.522Z,7.30
2018-11-07T02:09:16.967Z,7.30
2018-11-07T02:11:44.504Z,7.20
2018-11-07T02:14:11.989Z,7.20
2018-11-07T02:16:39.352Z,7.30
2018-11-07T02:19:06.896Z,7.20
2018-11-07T02:21:34.455Z,7.00
2018-11-07T02:24:01.886Z,6.90
2018-11-07T02:26:29.522Z,6.80
2018-11-07T02:28:56.936Z,6.80
2018-11-07T02:31:24.468Z,6.80
2018-11-07T02:33:51.864Z,6.70
2018-11-07T02:36:19.330Z,6.80
2018-11-07T02:38:46.865Z,6.70
2018-11-07T02:41:14.466Z,6.70
2018-11-07T02:43:41.884Z,6.70
2018-11-07T02:46:09.414Z,6.80
2018-11-07T02:48:36.897Z,7.00
2018-11-07T02:51:04.800Z,6.90
2018-11-07T02:53:32.343Z,6.90
2018-11-07T02:56:00.376Z,6.90
2018-11-07T02:58:27.850Z,7.00
2018-11-07T03:00:55.522Z,7.00
2018-11-07T03:03:22.963Z,7.00
2018-11-07T03:05:50.563Z,7.00
2018-11-07T03:08:19.077Z,7.00
2018-11-07T03:10:46.639Z,7.10
2018-11-07T03:13:14.013Z,7.10
2018-11-07T03:15:41.510Z,7.10
2018-11-07T03:18:08.971Z,7.20
2018-11-07T03:20:36.388Z,7.20
2018-11-07T03:23:03.952Z,7.20
2018-11-07T03:25:31.513Z,7.10
2018-11-07T03:27:58.905Z,7.10
2018-11-07T03:30:26.278Z,7.10
2018-11-07T03:32:53.715Z,7.10
2018-11-07T03:35:25.471Z,7.00
2018-11-07T03:37:52.935Z,6.90
2018-11-07T03:40:20.569Z,6.70
2018-11-07T03:42:48.098Z,6.80
2018-11-07T03:45:15.625Z,6.70
2018-11-07T03:47:43.278Z,6.70
2018-11-07T03:50:11.142Z,6.60
2018-11-07T03:52:39.619Z,6.40
2018-11-07T03:55:07.219Z,6.50
2018-11-07T03:57:34.686Z,6.50
2018-11-07T04:00:02.477Z,6.40
2018-11-07T04:02:29.970Z,6.30
2018-11-07T04:04:57.415Z,6.20
2018-11-07T04:07:24.931Z,6.30
2018-11-07T04:09:52.459Z,6.50
2018-11-07T04:12:19.918Z,6.60
2018-11-07T04:14:47.342Z,6.60
2018-11-07T04:17:15.036Z,6.70
2018-11-07T04:19:42.438Z,6.70
2018-11-07T04:22:10.159Z,6.80
2018-11-07T04:24:37.535Z,6.90
2018-11-07T04:27:04.993Z,6.90
2018-11-07T04:29:32.395Z,6.80
2018-11-07T04:31:59.805Z,6.80
2018-11-07T04:34:27.225Z,7.00
2018-11-07T04:36:54.688Z,7.00
2018-11-07T04:39:22.138Z,6.90
2018-11-07T04:41:49.589Z,7.00
2018-11-07T04:44:17.202Z,7.00
2018-11-07T04:46:44.822Z,6.90
2018-11-07T04:49:12.467Z,6.90
2018-11-07T04:51:40.011Z,7.10
2018-11-07T04:54:07.578Z,7.10
2018-11-07T04:56:35.012Z,6.90
2018-11-07T04:59:04.060Z,6.90
2018-11-07T05:01:31.589Z,7.00
2018-11-07T05:03:59.197Z,7.10
2018-11-07T05:09:30.082Z,7.00
2018-11-07T05:11:57.736Z,6.80
2018-11-07T05:14:25.259Z,6.70
2018-11-07T05:16:52.652Z,6.60
2018-11-07T05:19:20.051Z,6.60
2018-11-07T05:21:47.742Z,6.60
2018-11-07T05:24:15.147Z,6.50
2018-11-07T05:26:42.596Z,6.50
2018-11-07T05:29:10.192Z,6.50
2018-11-07T05:31:37.844Z,6.50
2018-11-07T05:34:05.433Z,6.40
2018-11-07T05:36:33.002Z,6.40
2018-11-07T05:39:00.488Z,6.20
2018-11-07T05:41:27.982Z,6.20
2018-11-07T05:43:55.438Z,6.10
2018-11-07T05:46:23.210Z,6.00
2018-11-07T05:48:50.773Z,6.00
2018-11-07T05:51:18.268Z,6.00
2018-11-07T05:53:46.002Z,6.00
2018-11-07T05:56:13.570Z,6.00
2018-11-07T05:58:41.241Z,5.90
2018-11-07T06:01:08.772Z,5.90
2018-11-07T06:03:36.270Z,6.00
2018-11-07T06:06:04.182Z,5.90
2018-11-07T06:08:31.550Z,5.90
2018-11-07T06:10:59.061Z,5.80
2018-11-07T06:13:26.420Z,5.80
2018-11-07T06:15:54.058Z,5.90
2018-11-07T06:18:21.638Z,5.80
2018-11-07T06:20:49.769Z,5.80
2018-11-07T06:23:17.205Z,5.60
2018-11-07T06:25:44.602Z,5.70
2018-11-07T06:28:12.108Z,5.70
2018-11-07T06:30:39.544Z,5.80
2018-11-07T06:33:07.142Z,5.90
2018-11-07T06:35:34.796Z,5.80
2018-11-07T06:38:02.527Z,5.80
2018-11-07T06:40:30.039Z,5.80
2018-11-07T06:42:57.671Z,5.80
2018-11-07T06:45:25.230Z,5.80
2018-11-07T06:47:52.685Z,6.00
2018-11-07T06:50:20.104Z,5.90
2018-11-07T06:52:47.632Z,6.00
2018-11-07T06:55:15.361Z,6.00
2018-11-07T06:57:42.941Z,6.00
2018-11-07T07:00:14.239Z,6.10
2018-11-07T07:02:42.546Z,6.20
2018-11-07T07:05:10.131Z,6.10
2018-11-07T07:07:38.071Z,6.00
2018-11-07T07:10:08.908Z,6.30
2018-11-07T07:12:36.331Z,6.50
2018-11-07T07:15:04.665Z,6.50
2018-11-07T07:17:32.315Z,6.50
2018-11-07T07:20:00.375Z,6.60
2018-11-07T07:22:28.012Z,6.70
2018-11-07T07:24:55.385Z,6.80
2018-11-07T07:27:23.591Z,6.90
2018-11-07T07:29:51.216Z,7.10
2018-11-07T07:32:18.699Z,7.20
2018-11-07T07:34:46.299Z,7.30
2018-11-07T07:37:13.823Z,7.40
2018-11-07T07:39:41.379Z,7.50
2018-11-07T07:42:08.869Z,7.60
2018-11-07T07:44:36.395Z,7.60
2018-11-07T07:47:04.041Z,7.70
2018-11-07T07:49:31.629Z,7.70
2018-11-07T07:51:59.153Z,7.70
2018-11-07T07:54:26.595Z,7.80
2018-11-07T07:56:54.185Z,7.80
2018-11-07T07:59:21.753Z,7.80
2018-11-07T08:01:49.291Z,7.80
2018-11-07T08:04:16.766Z,7.80
2018-11-07T08:06:44.165Z,7.90
2018-11-07T08:09:13.109Z,8.10
2018-11-07T08:11:40.773Z,8.30
2018-11-07T08:14:09.028Z,8.20
2018-11-07T08:16:36.585Z,8.30
2018-11-07T08:19:04.608Z,8.50
2018-11-07T08:21:32.150Z,8.50
2018-11-07T08:23:59.668Z,8.60
2018-11-07T08:26:27.236Z,8.80
2018-11-07T08:28:54.722Z,9.10
2018-11-07T08:31:22.230Z,9.00
2018-11-07T08:33:49.884Z,9.10
2018-11-07T08:36:17.484Z,8.90
2018-11-07T08:38:44.942Z,8.80
2018-11-07T08:41:12.478Z,8.90
2018-11-07T08:43:40.104Z,9.10
2018-11-07T08:46:07.624Z,9.20
2018-11-07T08:48:35.068Z,9.40
2018-11-07T08:51:02.516Z,9.50
2018-11-07T08:53:30.185Z,9.80
2018-11-07T08:55:57.805Z,10.00
2018-11-07T08:58:25.298Z,10.10
2018-11-07T09:00:52.778Z,10.10
2018-11-07T09:03:20.233Z,10.30
2018-11-07T09:05:47.726Z,10.70
2018-11-07T09:08:15.856Z,10.80
2018-11-07T09:10:43.278Z,11.20
2018-11-07T09:13:10.832Z,11.60
2018-11-07T09:15:38.588Z,11.80
2018-11-07T09:18:06.131Z,12.00
2018-11-07T09:20:33.636Z,12.20
2018-11-07T09:23:01.132Z,12.60
2018-11-07T09:25:28.778Z,12.90
2018-11-07T09:27:56.354Z,13.00
2018-11-07T09:30:24.136Z,13.30
2018-11-07T09:32:51.773Z,13.70
2018-11-07T09:35:19.822Z,13.90
2018-11-07T09:37:48.009Z,14.30
2018-11-07T09:40:16.877Z,14.20
2018-11-07T09:42:45.268Z,14.20
2018-11-07T09:45:14.920Z,14.50
2018-11-07T09:47:43.145Z,14.70
2018-11-07T09:50:11.838Z,15.00
2018-11-07T09:52:39.812Z,15.10
2018-11-07T09:55:08.998Z,15.30
2018-11-07T09:57:36.837Z,15.40
2018-11-07T10:00:06.376Z,15.40
2018-11-07T10:02:33.812Z,15.70
2018-11-07T10:05:01.316Z,16.00
2018-11-07T10:07:28.786Z,16.10
2018-11-07T10:09:56.601Z,16.20
2018-11-07T10:12:24.103Z,16.20
2018-11-07T10:14:51.708Z,16.20
2018-11-07T10:17:19.277Z,16.30
2018-11-07T10:19:46.762Z,16.50
2018-11-07T10:22:14.286Z,16.70
2018-11-07T10:24:41.702Z,16.90
2018-11-07T10:27:09.371Z,16.80
2018-11-07T10:29:37.187Z,16.50
2018-11-07T10:32:05.435Z,16.60
2018-11-07T10:34:33.044Z,16.90
2018-11-07T10:37:00.565Z,16.30
2018-11-07T10:39:28.104Z,16.00
2018-11-07T10:41:55.640Z,16.60
2018-11-07T10:44:23.245Z,16.90
2018-11-07T10:46:50.623Z,17.10
2018-11-07T10:49:17.989Z,17.30
2018-11-07T10:51:45.580Z,17.60
2018-11-07T10:54:13.169Z,17.40
2018-11-07T10:56:40.667Z,17.70
2018-11-07T10:59:08.147Z,18.00
2018-11-07T11:01:41.337Z,18.20
2018-11-07T11:04:08.948Z,18.20
2018-11-07T11:06:36.511Z,18.40
2018-11-07T11:09:06.100Z,18.40
2018-11-07T11:11:33.537Z,18.50
2018-11-07T11:14:01.072Z,18.80
2018-11-07T11:16:28.625Z,18.90
2018-11-07T11:18:56.193Z,18.90
2018-11-07T11:21:24.279Z,19.10
2018-11-07T11:23:52.551Z,18.80
2018-11-07T11:26:20.010Z,19.00
2018-11-07T11:28:47.557Z,18.80
2018-11-07T11:31:15.070Z,18.60
2018-11-07T11:33:42.524Z,18.30
2018-11-07T11:36:09.898Z,18.40
2018-11-07T11:38:37.588Z,18.30
2018-11-07T11:41:05.153Z,18.60
2018-11-07T11:43:33.256Z,19.00
2018-11-07T11:46:00.671Z,19.20
2018-11-07T11:48:28.226Z,19.10
2018-11-07T11:50:55.779Z,19.40
2018-11-07T11:53:23.330Z,19.00
2018-11-07T11:55:50.845Z,19.30
2018-11-07T11:58:18.273Z,19.60
2018-11-07T12:00:45.782Z,19.80
2018-11-07T12:03:13.314Z,19.90
2018-11-07T12:05:40.856Z,20.10
2018-11-07T12:08:08.491Z,20.30
2018-11-07T12:10:35.988Z,20.40
2018-11-07T12:13:03.855Z,20.20
2018-11-07T12:15:31.438Z,20.60
2018-11-07T12:17:58.954Z,20.60
2018-11-07T12:20:26.370Z,20.60
2018-11-07T12:22:53.850Z,20.60
2018-11-07T12:25:21.880Z,20.70
2018-11-07T12:27:49.334Z,20.60
2018-11-07T12:30:19.206Z,20.50
2018-11-07T12:32:47.843Z,20.90
2018-11-07T12:35:16.520Z,21.00
2018-11-07T12:37:44.133Z,21.10
2018-11-07T12:40:12.768Z,21.40
2018-11-07T12:42:40.392Z,21.70
2018-11-07T12:45:10.379Z,21.90
2018-11-07T12:47:38.807Z,22.30
2018-11-07T12:50:09.287Z,22.30
2018-11-07T12:52:36.786Z,21.90
2018-11-07T12:55:05.846Z,21.60
2018-11-07T12:57:33.568Z,21.20
2018-11-07T13:00:01.300Z,20.80
2018-11-07T13:02:28.871Z,20.50
2018-11-07T13:04:56.426Z,20.30
2018-11-07T13:07:23.904Z,20.20
2018-11-07T13:09:51.510Z,19.10
2018-11-07T13:12:19.059Z,19.30
2018-11-07T13:14:46.588Z,19.00
2018-11-07T13:17:14.148Z,18.40
2018-11-07T13:19:41.678Z,18.10
2018-11-07T13:22:09.100Z,18.00
2018-11-07T13:24:36.697Z,17.90
2018-11-07T13:27:05.793Z,17.90
2018-11-07T13:29:33.265Z,18.00
2018-11-07T13:32:00.781Z,17.70
2018-11-07T13:34:28.287Z,17.80
2018-11-07T13:36:55.915Z,17.80
2018-11-07T13:39:24.200Z,18.40
2018-11-07T13:41:51.721Z,18.90
2018-11-07T13:44:19.188Z,19.60
2018-11-07T13:46:47.859Z,20.10
2018-11-07T13:49:15.761Z,20.00
2018-11-07T13:51:43.460Z,20.00
2018-11-07T13:54:12.575Z,20.60
2018-11-07T13:56:40.154Z,21.00
2018-11-07T13:59:08.376Z,21.10
2018-11-07T14:01:36.381Z,21.30
2018-11-07T14:04:04.909Z,21.20
2018-11-07T14:06:33.111Z,21.30
2018-11-07T14:09:00.665Z,21.30
2018-11-07T14:11:28.151Z,21.30
2018-11-07T14:13:55.601Z,20.60
2018-11-07T14:16:33.478Z,18.60
2018-11-07T14:19:13.995Z,17.60
2018-11-07T14:21:41.453Z,16.70
2018-11-07T14:24:08.893Z,16.20
2018-11-07T14:26:36.491Z,16.00
2018-11-07T14:29:04.137Z,15.30
2018-11-07T14:31:31.809Z,15.20
2018-11-07T14:34:00.773Z,14.70
2018-11-07T14:36:28.340Z,14.60
2018-11-07T14:38:56.124Z,14.50
2018-11-07T14:41:23.705Z,14.60
2018-11-07T14:43:51.135Z,14.30
2018-11-07T14:46:18.748Z,14.40
2018-11-07T14:48:46.265Z,14.10
2018-11-07T14:51:13.785Z,14.10
2018-11-07T14:53:41.536Z,14.20
2018-11-07T14:56:09.150Z,14.00
2018-11-07T14:58:36.608Z,14.00
2018-11-07T15:01:04.223Z,14.00
2018-11-07T15:03:31.721Z,13.90
2018-11-07T15:05:59.332Z,13.80
2018-11-07T15:08:26.981Z,13.80
2018-11-07T15:10:54.616Z,13.80
2018-11-07T15:13:22.071Z,13.80
2018-11-07T15:15:49.850Z,13.70
2018-11-07T15:18:17.488Z,13.50
2018-11-07T15:20:45.177Z,13.30
2018-11-07T15:23:12.930Z,13.20
2018-11-07T15:25:40.390Z,13.30
2018-11-07T15:28:07.880Z,13.20
2018-11-07T15:30:35.729Z,13.10
2018-11-07T15:33:03.835Z,13.20
2018-11-07T15:35:31.482Z,13.10
2018-11-07T15:37:59.019Z,13.10
2018-11-07T15:40:26.581Z,12.80
2018-11-07T15:42:54.226Z,12.80
2018-11-07T15:45:21.738Z,12.70
2018-11-07T15:47:49.185Z,12.70
2018-11-07T15:50:22.359Z,12.60
2018-11-07T15:52:49.960Z,12.60
2018-11-07T15:55:17.711Z,12.60
2018-11-07T15:57:45.346Z,12.60
2018-11-07T16:00:14.089Z,12.50
2018-11-07T16:02:42.258Z,12.40
2018-11-07T16:05:11.770Z,12.30
2018-11-07T16:07:39.564Z,12.10
2018-11-07T16:10:08.585Z,12.10
2018-11-07T16:12:36.048Z,12.10
2018-11-07T16:15:04.171Z,11.90
2018-11-07T16:17:31.910Z,11.90
2018-11-07T16:19:59.538Z,11.80
2018-11-07T16:22:27.101Z,11.80
2018-11-07T16:24:54.852Z,11.90
2018-11-07T16:27:22.470Z,11.80
2018-11-07T16:29:51.108Z,11.70
2018-11-07T16:32:18.820Z,11.80
2018-11-07T16:34:46.337Z,11.70
2018-11-07T16:37:13.766Z,11.60
2018-11-07T16:39:41.397Z,11.50
2018-11-07T16:42:09.058Z,11.40
2018-11-07T16:44:36.563Z,11.20
2018-11-07T16:47:04.147Z,11.20
2018-11-07T16:49:31.708Z,11.20
2018-11-07T16:51:59.234Z,11.20
2018-11-07T16:54:26.868Z,11.20
2018-11-07T16:56:54.497Z,11.30
2018-11-07T16:59:21.999Z,11.20
2018-11-07T17:01:49.585Z,11.10
2018-11-07T17:04:17.179Z,11.10
2018-11-07T17:06:44.781Z,11.10
2018-11-07T17:09:12.665Z,11.10
2018-11-07T17:11:40.980Z,11.10
2018-11-07T17:14:08.702Z,11.00
2018-11-07T17:16:36.313Z,10.90
2018-11-07T17:19:03.808Z,11.00
2018-11-07T17:21:31.413Z,10.90
2018-11-07T17:24:00.053Z,10.90
2018-11-07T17:26:27.644Z,10.90
2018-11-07T17:28:55.201Z,10.90
2018-11-07T17:31:22.765Z,10.80
2018-11-07T17:33:50.397Z,10.80
2018-11-07T17:36:17.907Z,10.80
2018-11-07T17:38:45.395Z,10.70
2018-11-07T17:41:12.929Z,10.60
2018-11-07T17:43:40.411Z,10.60
2018-11-07T17:46:07.988Z,10.50
2018-11-07T17:48:35.831Z,10.60
2018-11-07T17:51:03.469Z,10.70
2018-11-07T17:53:31.009Z,10.60
2018-11-07T17:55:58.676Z,10.60
2018-11-07T17:58:26.252Z,10.70
2018-11-07T18:00:53.907Z,10.50
2018-11-07T18:03:21.381Z,10.50
2018-11-07T18:05:49.122Z,10.50
2018-11-07T18:08:16.628Z,10.40
2018-11-07T18:10:44.230Z,10.20
2018-11-07T18:13:11.690Z,10.10
2018-11-07T18:15:39.356Z,10.10
2018-11-07T18:18:06.909Z,10.10
2018-11-07T18:20:34.479Z,10.10
2018-11-07T18:23:02.145Z,10.10
2018-11-07T18:25:29.515Z,10.10
2018-11-07T18:27:57.038Z,10.20
2018-11-07T18:30:24.531Z,10.10
2018-11-07T18:32:52.028Z,10.10
2018-11-07T18:35:20.682Z,10.00
2018-11-07T18:37:48.230Z,9.80
2018-11-07T18:40:17.158Z,9.60
2018-11-07T18:42:44.788Z,9.70
2018-11-07T18:45:12.789Z,9.80
2018-11-07T18:47:42.779Z,9.70
2018-11-07T18:50:11.690Z,9.60
2018-11-07T18:52:39.183Z,9.40
2018-11-07T18:55:08.411Z,9.50
2018-11-07T18:57:35.877Z,9.50
2018-11-07T19:00:05.089Z,9.50
2018-11-07T19:02:32.768Z,9.50
2018-11-07T19:05:00.227Z,9.60
2018-11-07T19:07:27.795Z,9.60
2018-11-07T19:09:55.318Z,9.60
2018-11-07T19:12:22.920Z,9.60
2018-11-07T19:14:50.443Z,9.50
2018-11-07T19:17:17.995Z,9.50
2018-11-07T19:19:45.596Z,9.30
2018-11-07T19:22:14.137Z,9.20
2018-11-07T19:24:41.711Z,9.20
2018-11-07T19:27:09.187Z,9.30
2018-11-07T19:29:36.643Z,9.20
2018-11-07T19:32:04.225Z,9.30
2018-11-07T19:34:31.665Z,9.20
2018-11-07T19:36:59.249Z,9.30
2018-11-07T19:39:26.864Z,9.30
2018-11-07T19:41:54.316Z,9.30
2018-11-07T19:44:21.737Z,9.40
2018-11-07T19:46:50.115Z,9.30
2018-11-07T19:49:17.987Z,9.30
2018-11-07T19:51:45.656Z,9.20
2018-11-07T19:54:13.241Z,9.10
2018-11-07T19:56:40.755Z,9.10
2018-11-07T19:59:08.427Z,9.20
2018-11-07T20:01:36.039Z,9.20
2018-11-07T20:04:04.829Z,9.10
2018-11-07T20:06:32.309Z,9.00
2018-11-07T20:08:59.785Z,9.00
2018-11-07T20:11:27.330Z,9.00
2018-11-07T20:13:54.841Z,9.00
2018-11-07T20:16:22.339Z,8.90
2018-11-07T20:18:49.907Z,9.00
2018-11-07T20:21:17.510Z,9.00
2018-11-07T20:23:45.037Z,9.10
2018-11-07T20:26:12.891Z,9.10
2018-11-07T20:28:41.177Z,9.10
2018-11-07T20:31:08.809Z,9.00
2018-11-07T20:33:36.347Z,8.90
2018-11-07T20:36:03.991Z,8.80
2018-11-07T20:38:31.697Z,8.80
2018-11-07T20:41:01.103Z,8.80
2018-11-07T20:43:28.866Z,8.80
2018-11-07T20:45:57.099Z,8.80
2018-11-07T20:48:24.838Z,8.70
2018-11-07T20:50:52.669Z,8.60
2018-11-07T20:53:20.346Z,8.80
2018-11-07T20:55:47.873Z,8.70
2018-11-07T20:58:15.296Z,8.70
2018-11-07T21:00:42.828Z,8.80
2018-11-07T21:03:10.430Z,8.70
2018-11-07T21:05:37.970Z,8.70
2018-11-07T21:08:06.720Z,8.60
2018-11-07T21:10:34.488Z,8.50
2018-11-07T21:13:02.079Z,8.50
2018-11-07T21:15:29.520Z,8.40
2018-11-07T21:17:58.051Z,8.40
2018-11-07T21:20:25.461Z,8.40
2018-11-07T21:22:52.902Z,8.20
2018-11-07T21:25:20.505Z,8.30
2018-11-07T21:27:47.981Z,8.30
2018-11-07T21:30:15.416Z,8.30
2018-11-07T21:32:43.435Z,8.40
2018-11-07T21:35:10.958Z,8.30
2018-11-07T21:37:38.755Z,8.20
2018-11-07T21:40:09.274Z,8.10
2018-11-07T21:42:37.841Z,8.00
2018-11-07T21:45:07.450Z,8.00
2018-11-07T21:47:35.229Z,8.00
2018-11-07T21:50:02.853Z,8.10
2018-11-07T21:52:30.785Z,8.10
2018-11-07T21:54:58.294Z,8.10
2018-11-07T21:57:26.343Z,8.10
2018-11-07T21:59:53.817Z,8.10
2018-11-07T22:02:21.401Z,8.10
2018-11-07T22:04:48.850Z,8.10
2018-11-07T22:07:16.319Z,8.00
2018-11-07T22:09:43.771Z,8.00
2018-11-07T22:12:11.160Z,8.00
2018-11-07T22:14:38.705Z,8.00
2018-11-07T22:17:06.301Z,8.00
2018-11-07T22:19:33.726Z,8.00
2018-11-07T22:22:01.193Z,7.90
2018-11-07T22:24:28.666Z,7.80
2018-11-07T22:26:56.174Z,7.80
2018-11-07T22:29:23.703Z,7.90
2018-11-07T22:31:51.169Z,7.90
2018-11-07T22:34:18.654Z,7.80
2018-11-07T22:36:46.181Z,7.80
2018-11-07T22:39:13.991Z,7.70
2018-11-07T22:41:42.327Z,7.80
2018-11-07T22:44:10.275Z,7.90
2018-11-07T22:46:37.974Z,7.90
2018-11-07T22:49:05.401Z,7.80
2018-11-07T22:51:33.043Z,7.70
2018-11-07T22:54:01.375Z,7.70
2018-11-07T22:56:28.977Z,7.80
2018-11-07T22:58:56.503Z,7.80
2018-11-07T23:01:28.655Z,7.80
2018-11-07T23:03:56.083Z,7.90
2018-11-07T23:06:23.529Z,8.00
2018-11-07T23:08:50.949Z,8.00
2018-11-07T23:11:18.478Z,7.90
2018-11-07T23:13:45.865Z,7.90
2018-11-07T23:16:13.309Z,7.90
2018-11-07T23:18:40.724Z,7.80
2018-11-07T23:21:08.352Z,7.80
2018-11-07T23:23:35.825Z,7.80
2018-11-07T23:26:03.251Z,7.70
2018-11-07T23:28:30.681Z,7.70
2018-11-07T23:30:58.206Z,7.70
2018-11-07T23:33:25.718Z,7.70
2018-11-07T23:35:53.192Z,7.60
2018-11-07T23:38:20.633Z,7.50
2018-11-07T23:40:47.999Z,7.50
2018-11-07T23:43:15.419Z,7.30
2018-11-07T23:45:42.893Z,7.20
2018-11-07T23:48:10.358Z,7.20
2018-11-07T23:50:37.756Z,7.20
2018-11-07T23:53:05.816Z,7.30
2018-11-07T23:55:33.226Z,7.30
2018-11-07T23:58:00.836Z,7.50
